sensor_id;sensor_type;location;lat;lon;timestamp;pressure;altitude;pressure_sealevel;temperature;humidity
22662;BME280;11497;52.222;21.246;2023-04-08T00:01:57;100994.31;;;6.02;76.73
22662;BME280;11497;52.222;21.246;2023-04-08T00:04:25;101004.59;;;6.20;76.75
22662;BME280;11497;52.222;21.246;2023-04-08T00:06:54;100997.66;;;6.19;76.65
22662;BME280;11497;52.222;21.246;2023-04-08T00:09:22;100997.72;;;6.09;76.76
22662;BME280;11497;52.222;21.246;2023-04-08T00:11:51;101001.16;;;6.12;76.52
22662;BME280;11497;52.222;21.246;2023-04-08T00:14:19;100996.03;;;6.03;76.69
22662;BME280;11497;52.222;21.246;2023-04-08T00:16:47;100997.69;;;6.13;76.75
22662;BME280;11497;52.222;21.246;2023-04-08T00:19:14;100991.72;;;6.00;76.82
22662;BME280;11497;52.222;21.246;2023-04-08T00:21:42;100998.66;;;6.03;77.20
22662;BME280;11497;52.222;21.246;2023-04-08T00:24:10;100999.44;;;6.14;76.95
22662;BME280;11497;52.222;21.246;2023-04-08T00:26:38;100995.97;;;6.12;76.76
22662;BME280;11497;52.222;21.246;2023-04-08T00:29:06;101002.97;;;6.04;76.78
22662;BME280;11497;52.222;21.246;2023-04-08T00:31:34;101008.13;;;6.07;76.79
22662;BME280;11497;52.222;21.246;2023-04-08T00:34:02;100999.50;;;6.02;76.51
22662;BME280;11497;52.222;21.246;2023-04-08T00:36:30;101001.31;;;5.76;76.69
22662;BME280;11497;52.222;21.246;2023-04-08T00:38:57;101004.78;;;5.72;77.03
22662;BME280;11497;52.222;21.246;2023-04-08T00:41:25;101000.44;;;5.81;76.18
22662;BME280;11497;52.222;21.246;2023-04-08T00:43:53;101002.25;;;5.59;76.05
22662;BME280;11497;52.222;21.246;2023-04-08T00:46:21;100997.09;;;5.49;76.41
22662;BME280;11497;52.222;21.246;2023-04-08T00:48:49;100998.84;;;5.31;76.93
22662;BME280;11497;52.222;21.246;2023-04-08T00:51:19;101011.88;;;5.18;77.22
22662;BME280;11497;52.222;21.246;2023-04-08T00:53:46;101010.16;;;5.05;77.98
22662;BME280;11497;52.222;21.246;2023-04-08T00:56:14;101013.63;;;4.97;78.33
22662;BME280;11497;52.222;21.246;2023-04-08T00:58:42;101004.97;;;4.77;78.40
22662;BME280;11497;52.222;21.246;2023-04-08T01:01:18;101017.06;;;4.57;79.50
22662;BME280;11497;52.222;21.246;2023-04-08T01:07:14;101023.06;;;4.19;81.21
22662;BME280;11497;52.222;21.246;2023-04-08T01:09:56;101020.44;;;4.10;81.35
22662;BME280;11497;52.222;21.246;2023-04-08T01:12:29;101024.69;;;3.94;82.44
22662;BME280;11497;52.222;21.246;2023-04-08T01:15:05;101024.69;;;3.88;83.00
22662;BME280;11497;52.222;21.246;2023-04-08T01:17:34;101024.59;;;3.73;83.18
22662;BME280;11497;52.222;21.246;2023-04-08T01:20:04;101018.47;;;3.57;83.68
22662;BME280;11497;52.222;21.246;2023-04-08T01:25:23;101019.09;;;3.15;85.09
22662;BME280;11497;52.222;21.246;2023-04-08T01:27:54;101019.06;;;3.12;85.55
22662;BME280;11497;52.222;21.246;2023-04-08T01:30:25;101011.22;;;2.97;85.96
22662;BME280;11497;52.222;21.246;2023-04-08T01:32:54;101013.75;;;2.88;86.84
22662;BME280;11497;52.222;21.246;2023-04-08T01:35:23;101015.34;;;2.75;87.27
22662;BME280;11497;52.222;21.246;2023-04-08T01:37:53;101024.81;;;2.73;88.30
22662;BME280;11497;52.222;21.246;2023-04-08T01:40:22;101027.75;;;3.22;88.86
22662;BME280;11497;52.222;21.246;2023-04-08T01:42:54;101037.22;;;3.17;89.22
22662;BME280;11497;52.222;21.246;2023-04-08T01:45:23;101035.28;;;2.88;89.34
22662;BME280;11497;52.222;21.246;2023-04-08T01:47:52;101036.78;;;2.63;89.57
22662;BME280;11497;52.222;21.246;2023-04-08T01:50:20;101040.19;;;2.61;90.82
22662;BME280;11497;52.222;21.246;2023-04-08T01:52:49;101043.69;;;2.66;91.36
22662;BME280;11497;52.222;21.246;2023-04-08T01:55:20;101050.78;;;2.85;91.88
22662;BME280;11497;52.222;21.246;2023-04-08T01:57:50;101042.16;;;2.86;91.78
22662;BME280;11497;52.222;21.246;2023-04-08T02:00:26;101036.75;;;2.57;91.68
22662;BME280;11497;52.222;21.246;2023-04-08T02:02:55;101042.47;;;2.29;92.65
22662;BME280;11497;52.222;21.246;2023-04-08T02:05:24;101039.75;;;2.15;92.90
22662;BME280;11497;52.222;21.246;2023-04-08T02:07:52;101041.34;;;2.04;93.48
22662;BME280;11497;52.222;21.246;2023-04-08T02:10:20;101045.38;;;1.84;94.32
22662;BME280;11497;52.222;21.246;2023-04-08T02:12:48;101050.38;;;1.69;94.83
22662;BME280;11497;52.222;21.246;2023-04-08T02:15:16;101045.84;;;1.54;95.57
22662;BME280;11497;52.222;21.246;2023-04-08T02:17:49;101048.31;;;1.46;96.22
22662;BME280;11497;52.222;21.246;2023-04-08T02:20:25;101049.03;;;1.36;96.67
22662;BME280;11497;52.222;21.246;2023-04-08T02:23:19;101056.66;;;1.27;97.35
22662;BME280;11497;52.222;21.246;2023-04-08T02:25:48;101062.47;;;1.14;97.97
22662;BME280;11497;52.222;21.246;2023-04-08T02:28:18;101064.84;;;1.02;98.51
22662;BME280;11497;52.222;21.246;2023-04-08T02:30:51;101073.34;;;0.96;99.11
22662;BME280;11497;52.222;21.246;2023-04-08T02:33:20;101071.84;;;1.09;99.91
22662;BME280;11497;52.222;21.246;2023-04-08T02:35:51;101068.59;;;1.20;100.00
22662;BME280;11497;52.222;21.246;2023-04-08T02:38:23;101071.28;;;1.28;100.00
22662;BME280;11497;52.222;21.246;2023-04-08T02:40:56;101069.91;;;1.51;100.00
22662;BME280;11497;52.222;21.246;2023-04-08T02:43:25;101071.41;;;1.37;100.00
22662;BME280;11497;52.222;21.246;2023-04-08T02:45:59;101074.78;;;1.33;100.00
22662;BME280;11497;52.222;21.246;2023-04-08T02:48:31;101074.06;;;1.42;100.00
22662;BME280;11497;52.222;21.246;2023-04-08T02:50:58;101080.34;;;1.60;100.00
22662;BME280;11497;52.222;21.246;2023-04-08T02:53:26;101085.59;;;1.66;100.00
22662;BME280;11497;52.222;21.246;2023-04-08T02:55:54;101085.66;;;1.70;100.00
22662;BME280;11497;52.222;21.246;2023-04-08T02:58:22;101089.78;;;1.58;100.00
22662;BME280;11497;52.222;21.246;2023-04-08T03:00:50;101095.41;;;1.30;100.00
22662;BME280;11497;52.222;21.246;2023-04-08T03:03:18;101098.41;;;1.05;100.00
22662;BME280;11497;52.222;21.246;2023-04-08T03:05:45;101097.16;;;0.81;100.00
22662;BME280;11497;52.222;21.246;2023-04-08T03:08:13;101102.00;;;0.64;100.00
22662;BME280;11497;52.222;21.246;2023-04-08T03:10:41;101103.50;;;0.53;100.00
22662;BME280;11497;52.222;21.246;2023-04-08T03:13:09;101102.53;;;0.47;100.00
22662;BME280;11497;52.222;21.246;2023-04-08T03:15:37;101104.19;;;0.45;100.00
22662;BME280;11497;52.222;21.246;2023-04-08T03:18:05;101100.75;;;0.43;100.00
22662;BME280;11497;52.222;21.246;2023-04-08T03:20:33;101097.28;;;0.41;100.00
22662;BME280;11497;52.222;21.246;2023-04-08T03:23:01;101103.25;;;0.38;100.00
22662;BME280;11497;52.222;21.246;2023-04-08T03:25:29;101110.81;;;0.30;100.00
22662;BME280;11497;52.222;21.246;2023-04-08T03:27:58;101104.69;;;0.25;100.00
22662;BME280;11497;52.222;21.246;2023-04-08T03:30:26;101107.31;;;0.27;100.00
22662;BME280;11497;52.222;21.246;2023-04-08T03:32:54;101108.69;;;0.11;100.00
22662;BME280;11497;52.222;21.246;2023-04-08T03:35:22;101111.25;;;0.11;100.00
22662;BME280;11497;52.222;21.246;2023-04-08T03:37:50;101115.34;;;0.00;100.00
22662;BME280;11497;52.222;21.246;2023-04-08T03:40:17;101113.66;;;0.02;100.00
22662;BME280;11497;52.222;21.246;2023-04-08T03:42:45;101111.81;;;-0.05;100.00
22662;BME280;11497;52.222;21.246;2023-04-08T03:45:13;101122.84;;;-0.11;100.00
22662;BME280;11497;52.222;21.246;2023-04-08T03:47:41;101127.84;;;-0.17;100.00
22662;BME280;11497;52.222;21.246;2023-04-08T03:50:09;101122.91;;;-0.08;100.00
22662;BME280;11497;52.222;21.246;2023-04-08T03:52:37;101133.91;;;-0.13;100.00
22662;BME280;11497;52.222;21.246;2023-04-08T03:55:05;101129.75;;;-0.08;100.00
22662;BME280;11497;52.222;21.246;2023-04-08T03:57:33;101133.53;;;0.09;100.00
22662;BME280;11497;52.222;21.246;2023-04-08T04:00:01;101134.53;;;0.16;100.00
22662;BME280;11497;52.222;21.246;2023-04-08T04:02:38;101131.34;;;0.27;100.00
22662;BME280;11497;52.222;21.246;2023-04-08T04:05:07;101138.56;;;0.47;100.00
22662;BME280;11497;52.222;21.246;2023-04-08T04:07:35;101145.31;;;0.39;100.00
22662;BME280;11497;52.222;21.246;2023-04-08T04:10:03;101148.47;;;0.25;100.00
22662;BME280;11497;52.222;21.246;2023-04-08T04:12:31;101143.63;;;0.41;100.00
22662;BME280;11497;52.222;21.246;2023-04-08T04:14:59;101143.25;;;0.66;100.00
22662;BME280;11497;52.222;21.246;2023-04-08T04:17:27;101146.06;;;0.78;100.00
22662;BME280;11497;52.222;21.246;2023-04-08T04:19:55;101154.88;;;0.92;100.00
22662;BME280;11497;52.222;21.246;2023-04-08T04:22:23;101155.13;;;1.05;100.00
22662;BME280;11497;52.222;21.246;2023-04-08T04:24:50;101161.22;;;1.10;100.00
22662;BME280;11497;52.222;21.246;2023-04-08T04:27:18;101160.44;;;1.14;100.00
22662;BME280;11497;52.222;21.246;2023-04-08T04:29:46;101156.91;;;1.09;100.00
22662;BME280;11497;52.222;21.246;2023-04-08T04:32:14;101161.50;;;1.25;100.00
22662;BME280;11497;52.222;21.246;2023-04-08T04:34:42;101161.59;;;1.32;100.00
22662;BME280;11497;52.222;21.246;2023-04-08T04:37:11;101168.50;;;1.33;100.00
22662;BME280;11497;52.222;21.246;2023-04-08T04:39:39;101176.31;;;1.38;100.00
22662;BME280;11497;52.222;21.246;2023-04-08T04:42:07;101164.69;;;1.63;100.00
22662;BME280;11497;52.222;21.246;2023-04-08T04:44:34;101169.22;;;1.79;100.00
22662;BME280;11497;52.222;21.246;2023-04-08T04:47:03;101171.06;;;1.88;100.00
22662;BME280;11497;52.222;21.246;2023-04-08T04:49:30;101166.94;;;2.00;100.00
22662;BME280;11497;52.222;21.246;2023-04-08T04:51:58;101168.41;;;3.33;100.00
22662;BME280;11497;52.222;21.246;2023-04-08T04:54:26;101169.31;;;5.16;100.00
22662;BME280;11497;52.222;21.246;2023-04-08T04:56:54;101182.88;;;4.26;97.16
22662;BME280;11497;52.222;21.246;2023-04-08T04:59:22;101177.94;;;5.03;94.98
22662;BME280;11497;52.222;21.246;2023-04-08T05:01:50;101179.53;;;6.50;91.33
22662;BME280;11497;52.222;21.246;2023-04-08T05:04:17;101186.03;;;7.25;85.04
22662;BME280;11497;52.222;21.246;2023-04-08T05:06:45;101184.03;;;7.56;81.97
22662;BME280;11497;52.222;21.246;2023-04-08T05:09:13;101186.72;;;8.38;78.04
22662;BME280;11497;52.222;21.246;2023-04-08T05:11:41;101194.41;;;9.68;74.92
22662;BME280;11497;52.222;21.246;2023-04-08T05:14:09;101193.59;;;11.00;68.13
22662;BME280;11497;52.222;21.246;2023-04-08T05:16:37;101192.78;;;9.07;66.80
22662;BME280;11497;52.222;21.246;2023-04-08T05:19:05;101198.28;;;8.12;68.31
22662;BME280;11497;52.222;21.246;2023-04-08T05:21:33;101197.47;;;8.07;69.32
22662;BME280;11497;52.222;21.246;2023-04-08T05:24:01;101195.09;;;9.81;65.98
22662;BME280;11497;52.222;21.246;2023-04-08T05:26:29;101200.84;;;9.50;64.77
22662;BME280;11497;52.222;21.246;2023-04-08T05:28:57;101193.88;;;8.20;65.74
22662;BME280;11497;52.222;21.246;2023-04-08T05:31:25;101194.81;;;8.12;67.22
22662;BME280;11497;52.222;21.246;2023-04-08T05:33:53;101193.69;;;10.95;63.94
22662;BME280;11497;52.222;21.246;2023-04-08T05:36:21;101202.94;;;12.49;59.20
22662;BME280;11497;52.222;21.246;2023-04-08T05:38:49;101195.31;;;10.61;57.37
22662;BME280;11497;52.222;21.246;2023-04-08T05:41:17;101204.72;;;11.10;58.09
22662;BME280;11497;52.222;21.246;2023-04-08T05:43:45;101210.97;;;12.74;54.99
22662;BME280;11497;52.222;21.246;2023-04-08T05:46:13;101212.34;;;12.25;53.58
22662;BME280;11497;52.222;21.246;2023-04-08T05:48:41;101212.47;;;12.53;53.06
22662;BME280;11497;52.222;21.246;2023-04-08T05:51:15;101209.75;;;12.86;52.17
22662;BME280;11497;52.222;21.246;2023-04-08T05:53:47;101219.66;;;12.76;51.70
22662;BME280;11497;52.222;21.246;2023-04-08T05:56:15;101216.69;;;13.18;51.10
22662;BME280;11497;52.222;21.246;2023-04-08T05:58:42;101219.50;;;13.40;50.57
22662;BME280;11497;52.222;21.246;2023-04-08T06:01:10;101219.16;;;13.50;49.70
22662;BME280;11497;52.222;21.246;2023-04-08T06:03:38;101225.16;;;14.07;48.53
22662;BME280;11497;52.222;21.246;2023-04-08T06:06:09;101221.88;;;14.73;46.84
22662;BME280;11497;52.222;21.246;2023-04-08T06:08:40;101223.78;;;16.02;45.28
22662;BME280;11497;52.222;21.246;2023-04-08T06:11:08;101230.00;;;17.00;43.58
22662;BME280;11497;52.222;21.246;2023-04-08T06:13:36;101230.78;;;16.44;42.57
22662;BME280;11497;52.222;21.246;2023-04-08T06:16:15;101229.00;;;16.83;41.73
22662;BME280;11497;52.222;21.246;2023-04-08T06:18:48;101237.41;;;16.73;40.79
22662;BME280;11497;52.222;21.246;2023-04-08T06:21:16;101230.00;;;17.18;40.69
22662;BME280;11497;52.222;21.246;2023-04-08T06:23:44;101226.34;;;17.21;40.14
22662;BME280;11497;52.222;21.246;2023-04-08T06:26:12;101235.41;;;17.34;39.14
22662;BME280;11497;52.222;21.246;2023-04-08T06:28:39;101233.56;;;16.99;38.64
22662;BME280;11497;52.222;21.246;2023-04-08T06:31:07;101231.25;;;16.33;39.22
22662;BME280;11497;52.222;21.246;2023-04-08T06:33:35;101234.66;;;16.15;40.06
22662;BME280;11497;52.222;21.246;2023-04-08T06:36:05;101231.06;;;15.97;39.85
22662;BME280;11497;52.222;21.246;2023-04-08T06:38:34;101229.03;;;14.71;40.79
22662;BME280;11497;52.222;21.246;2023-04-08T06:43:31;101230.50;;;15.02;42.26
22662;BME280;11497;52.222;21.246;2023-04-08T06:45:59;101234.44;;;14.90;42.36
22662;BME280;11497;52.222;21.246;2023-04-08T06:48:27;101232.72;;;15.57;41.42
22662;BME280;11497;52.222;21.246;2023-04-08T06:50:58;101235.59;;;15.28;41.77
22662;BME280;11497;52.222;21.246;2023-04-08T06:53:27;101229.91;;;15.82;41.36
22662;BME280;11497;52.222;21.246;2023-04-08T06:56:00;101237.84;;;15.60;41.35
22662;BME280;11497;52.222;21.246;2023-04-08T06:58:28;101236.22;;;15.13;41.09
22662;BME280;11497;52.222;21.246;2023-04-08T07:00:57;101238.94;;;15.55;40.71
22662;BME280;11497;52.222;21.246;2023-04-08T07:03:25;101239.44;;;15.64;40.68
22662;BME280;11497;52.222;21.246;2023-04-08T07:05:53;101238.44;;;16.09;39.84
22662;BME280;11497;52.222;21.246;2023-04-08T07:08:21;101244.13;;;16.20;40.23
22662;BME280;11497;52.222;21.246;2023-04-08T07:10:51;101232.72;;;16.79;39.92
22662;BME280;11497;52.222;21.246;2023-04-08T07:13:19;101230.06;;;17.53;38.66
22662;BME280;11497;52.222;21.246;2023-04-08T07:15:47;101240.97;;;17.66;37.68
22662;BME280;11497;52.222;21.246;2023-04-08T07:18:15;101248.94;;;18.17;36.88
22662;BME280;11497;52.222;21.246;2023-04-08T07:20:43;101246.31;;;18.50;36.71
22662;BME280;11497;52.222;21.246;2023-04-08T07:23:11;101247.97;;;18.86;35.75
22662;BME280;11497;52.222;21.246;2023-04-08T07:25:39;101250.84;;;19.30;34.68
22662;BME280;11497;52.222;21.246;2023-04-08T07:28:06;101260.00;;;19.24;34.88
22662;BME280;11497;52.222;21.246;2023-04-08T07:30:35;101261.38;;;19.47;35.13
22662;BME280;11497;52.222;21.246;2023-04-08T07:33:03;101275.25;;;19.68;33.60
22662;BME280;11497;52.222;21.246;2023-04-08T07:35:32;101267.16;;;18.91;33.91
22662;BME280;11497;52.222;21.246;2023-04-08T07:38:00;101263.59;;;19.23;34.64
22662;BME280;11497;52.222;21.246;2023-04-08T07:40:28;101265.34;;;20.16;33.08
22662;BME280;11497;52.222;21.246;2023-04-08T07:42:56;101261.84;;;21.02;32.31
22662;BME280;11497;52.222;21.246;2023-04-08T07:45:24;101254.59;;;22.39;31.18
22662;BME280;11497;52.222;21.246;2023-04-08T07:47:52;101258.53;;;23.70;29.79
22662;BME280;11497;52.222;21.246;2023-04-08T07:50:20;101265.34;;;24.44;28.43
22662;BME280;11497;52.222;21.246;2023-04-08T07:52:48;101264.53;;;25.76;27.30
22662;BME280;11497;52.222;21.246;2023-04-08T07:55:16;101260.38;;;26.36;25.98
22662;BME280;11497;52.222;21.246;2023-04-08T07:57:44;101257.63;;;26.77;24.56
22662;BME280;11497;52.222;21.246;2023-04-08T08:00:13;101258.78;;;26.54;24.59
22662;BME280;11497;52.222;21.246;2023-04-08T08:02:47;101258.94;;;26.93;24.74
22662;BME280;11497;52.222;21.246;2023-04-08T08:05:15;101251.41;;;27.07;23.73
22662;BME280;11497;52.222;21.246;2023-04-08T08:07:43;101257.69;;;27.37;23.40
22662;BME280;11497;52.222;21.246;2023-04-08T08:10:12;101255.94;;;27.95;22.70
22662;BME280;11497;52.222;21.246;2023-04-08T08:12:39;101255.66;;;27.10;23.10
22662;BME280;11497;52.222;21.246;2023-04-08T08:15:08;101265.44;;;25.65;22.98
22662;BME280;11497;52.222;21.246;2023-04-08T08:17:35;101260.09;;;25.97;23.83
22662;BME280;11497;52.222;21.246;2023-04-08T08:20:04;101261.38;;;26.24;23.47
22662;BME280;11497;52.222;21.246;2023-04-08T08:22:32;101254.91;;;26.05;23.50
22662;BME280;11497;52.222;21.246;2023-04-08T08:25:00;101255.88;;;26.04;23.64
22662;BME280;11497;52.222;21.246;2023-04-08T08:27:27;101257.72;;;26.25;23.62
22662;BME280;11497;52.222;21.246;2023-04-08T08:29:55;101248.53;;;26.99;23.21
22662;BME280;11497;52.222;21.246;2023-04-08T08:32:24;101246.22;;;26.95;23.07
22662;BME280;11497;52.222;21.246;2023-04-08T08:34:52;101245.03;;;27.68;22.63
22662;BME280;11497;52.222;21.246;2023-04-08T08:37:20;101246.69;;;28.27;22.01
22662;BME280;11497;52.222;21.246;2023-04-08T08:39:48;101240.19;;;27.81;22.02
22662;BME280;11497;52.222;21.246;2023-04-08T08:42:23;101252.09;;;28.27;21.85
22662;BME280;11497;52.222;21.246;2023-04-08T08:44:51;101246.44;;;27.91;21.97
22662;BME280;11497;52.222;21.246;2023-04-08T08:47:21;101241.06;;;28.01;21.33
22662;BME280;11497;52.222;21.246;2023-04-08T08:49:49;101240.78;;;27.94;21.15
22662;BME280;11497;52.222;21.246;2023-04-08T08:52:17;101238.78;;;27.87;21.39
22662;BME280;11497;52.222;21.246;2023-04-08T08:54:45;101235.97;;;27.59;21.66
22662;BME280;11497;52.222;21.246;2023-04-08T08:57:19;101243.34;;;27.67;21.33
22662;BME280;11497;52.222;21.246;2023-04-08T08:59:48;101243.16;;;27.78;21.05
22662;BME280;11497;52.222;21.246;2023-04-08T09:02:31;101243.19;;;27.09;21.61
22662;BME280;11497;52.222;21.246;2023-04-08T09:05:02;101245.53;;;26.62;22.13
22662;BME280;11497;52.222;21.246;2023-04-08T09:07:35;101239.38;;;26.41;22.61
22662;BME280;11497;52.222;21.246;2023-04-08T09:10:04;101237.44;;;26.93;22.29
22662;BME280;11497;52.222;21.246;2023-04-08T09:12:32;101241.09;;;26.10;22.45
22662;BME280;11497;52.222;21.246;2023-04-08T09:15:09;101243.09;;;26.80;22.74
22662;BME280;11497;52.222;21.246;2023-04-08T09:17:39;101244.13;;;27.58;21.87
22662;BME280;11497;52.222;21.246;2023-04-08T09:20:10;101244.88;;;27.79;21.76
22662;BME280;11497;52.222;21.246;2023-04-08T09:22:58;101250.44;;;27.18;21.63
22662;BME280;11497;52.222;21.246;2023-04-08T09:25:31;101247.94;;;26.03;22.49
22662;BME280;11497;52.222;21.246;2023-04-08T09:27:59;101249.19;;;26.61;22.61
22662;BME280;11497;52.222;21.246;2023-04-08T09:30:28;101252.84;;;27.21;22.39
22662;BME280;11497;52.222;21.246;2023-04-08T09:32:59;101253.66;;;25.89;22.36
22662;BME280;11497;52.222;21.246;2023-04-08T09:35:28;101251.81;;;25.89;22.63
22662;BME280;11497;52.222;21.246;2023-04-08T09:37:56;101257.91;;;25.91;22.75
22662;BME280;11497;52.222;21.246;2023-04-08T09:40:24;101247.75;;;25.63;23.42
22662;BME280;11497;52.222;21.246;2023-04-08T09:42:54;101252.75;;;25.99;23.24
22662;BME280;11497;52.222;21.246;2023-04-08T09:45:25;101253.09;;;25.74;23.28
22662;BME280;11497;52.222;21.246;2023-04-08T09:48:13;101248.34;;;25.23;23.57
22662;BME280;11497;52.222;21.246;2023-04-08T09:50:48;101232.63;;;25.62;23.78
22662;BME280;11497;52.222;21.246;2023-04-08T09:53:23;101244.94;;;24.54;24.30
22662;BME280;11497;52.222;21.246;2023-04-08T09:55:55;101245.06;;;24.06;24.87
22662;BME280;11497;52.222;21.246;2023-04-08T09:58:38;101237.47;;;24.35;25.23
22662;BME280;11497;52.222;21.246;2023-04-08T10:01:07;101241.78;;;24.71;24.86
22662;BME280;11497;52.222;21.246;2023-04-08T10:03:41;101235.06;;;24.43;24.86
22662;BME280;11497;52.222;21.246;2023-04-08T10:06:12;101237.31;;;24.14;24.57
22662;BME280;11497;52.222;21.246;2023-04-08T10:08:41;101227.88;;;23.63;24.98
22662;BME280;11497;52.222;21.246;2023-04-08T10:11:10;101229.94;;;23.59;25.32
22662;BME280;11497;52.222;21.246;2023-04-08T10:13:38;101226.91;;;23.64;25.27
22662;BME280;11497;52.222;21.246;2023-04-08T10:18:46;101225.66;;;22.58;25.56
22662;BME280;11497;52.222;21.246;2023-04-08T10:21:37;101225.38;;;21.85;26.84
22662;BME280;11497;52.222;21.246;2023-04-08T10:24:09;101225.94;;;20.08;27.92
22662;BME280;11497;52.222;21.246;2023-04-08T10:26:42;101229.50;;;18.34;29.10
22662;BME280;11497;52.222;21.246;2023-04-08T10:31:53;101236.09;;;15.81;33.77
22662;BME280;11497;52.222;21.246;2023-04-08T10:34:25;101233.16;;;15.45;34.65
22662;BME280;11497;52.222;21.246;2023-04-08T10:36:55;101221.63;;;15.26;35.73
22662;BME280;11497;52.222;21.246;2023-04-08T10:39:24;101222.63;;;15.00;36.97
22662;BME280;11497;52.222;21.246;2023-04-08T10:41:54;101219.94;;;14.78;37.89
22662;BME280;11497;52.222;21.246;2023-04-08T10:44:24;101215.38;;;14.60;38.18
22662;BME280;11497;52.222;21.246;2023-04-08T10:46:53;101210.56;;;14.71;39.02
22662;BME280;11497;52.222;21.246;2023-04-08T10:49:22;101216.13;;;14.39;38.57
22662;BME280;11497;52.222;21.246;2023-04-08T10:51:58;101215.06;;;14.19;39.12
22662;BME280;11497;52.222;21.246;2023-04-08T10:54:27;101212.09;;;14.04;39.49
22662;BME280;11497;52.222;21.246;2023-04-08T10:56:55;101209.31;;;14.08;39.74
22662;BME280;11497;52.222;21.246;2023-04-08T10:59:30;101202.06;;;14.15;40.67
22662;BME280;11497;52.222;21.246;2023-04-08T11:02:01;101200.66;;;14.29;40.60
22662;BME280;11497;52.222;21.246;2023-04-08T11:04:30;101193.31;;;14.38;41.00
22662;BME280;11497;52.222;21.246;2023-04-08T11:06:58;101191.94;;;14.52;40.69
22662;BME280;11497;52.222;21.246;2023-04-08T11:09:26;101193.03;;;14.47;40.00
22662;BME280;11497;52.222;21.246;2023-04-08T11:11:54;101195.00;;;14.65;39.80
22662;BME280;11497;52.222;21.246;2023-04-08T11:14:23;101187.47;;;14.78;39.60
22662;BME280;11497;52.222;21.246;2023-04-08T11:16:52;101185.47;;;14.61;39.92
22662;BME280;11497;52.222;21.246;2023-04-08T11:19:20;101189.88;;;14.36;39.74
22662;BME280;11497;52.222;21.246;2023-04-08T11:21:50;101179.81;;;14.48;40.06
22662;BME280;11497;52.222;21.246;2023-04-08T11:24:19;101181.59;;;14.71;40.19
22662;BME280;11497;52.222;21.246;2023-04-08T11:26:49;101183.44;;;14.69;40.17
22662;BME280;11497;52.222;21.246;2023-04-08T11:29:17;101185.81;;;14.75;39.72
22662;BME280;11497;52.222;21.246;2023-04-08T11:31:45;101179.06;;;14.45;39.23
22662;BME280;11497;52.222;21.246;2023-04-08T11:34:21;101186.50;;;14.57;38.96
22662;BME280;11497;52.222;21.246;2023-04-08T11:36:51;101184.19;;;14.73;39.42
22662;BME280;11497;52.222;21.246;2023-04-08T11:39:22;101177.31;;;14.90;39.59
22662;BME280;11497;52.222;21.246;2023-04-08T11:41:50;101179.88;;;14.70;39.77
22662;BME280;11497;52.222;21.246;2023-04-08T11:44:18;101172.75;;;14.49;40.22
22662;BME280;11497;52.222;21.246;2023-04-08T11:46:52;101169.34;;;14.70;40.52
22662;BME280;11497;52.222;21.246;2023-04-08T11:49:23;101169.88;;;14.78;40.41
22662;BME280;11497;52.222;21.246;2023-04-08T11:51:58;101168.38;;;14.94;40.31
22662;BME280;11497;52.222;21.246;2023-04-08T11:54:28;101170.84;;;14.99;39.98
22662;BME280;11497;52.222;21.246;2023-04-08T11:56:56;101164.94;;;14.92;39.78
22662;BME280;11497;52.222;21.246;2023-04-08T11:59:25;101160.03;;;15.27;39.58
22662;BME280;11497;52.222;21.246;2023-04-08T12:01:56;101157.56;;;15.44;38.10
22662;BME280;11497;52.222;21.246;2023-04-08T12:04:24;101153.69;;;15.75;37.83
22662;BME280;11497;52.222;21.246;2023-04-08T12:06:53;101165.97;;;15.96;38.30
22662;BME280;11497;52.222;21.246;2023-04-08T12:09:23;101162.84;;;15.86;38.32
22662;BME280;11497;52.222;21.246;2023-04-08T12:11:51;101162.91;;;15.64;38.65
22662;BME280;11497;52.222;21.246;2023-04-08T12:14:18;101154.03;;;15.45;39.12
22662;BME280;11497;52.222;21.246;2023-04-08T12:16:48;101152.31;;;15.44;39.12
22662;BME280;11497;52.222;21.246;2023-04-08T12:19:16;101155.09;;;15.61;39.41
22662;BME280;11497;52.222;21.246;2023-04-08T12:21:44;101146.56;;;15.97;39.13
22662;BME280;11497;52.222;21.246;2023-04-08T12:24:12;101150.66;;;16.43;38.18
22662;BME280;11497;52.222;21.246;2023-04-08T12:26:40;101148.00;;;16.62;37.30
22662;BME280;11497;52.222;21.246;2023-04-08T12:29:07;101135.47;;;16.67;36.91
22662;BME280;11497;52.222;21.246;2023-04-08T12:31:38;101139.91;;;16.27;36.57
22662;BME280;11497;52.222;21.246;2023-04-08T12:34:06;101136.22;;;16.32;36.34
22662;BME280;11497;52.222;21.246;2023-04-08T12:36:34;101131.06;;;16.28;36.84
22662;BME280;11497;52.222;21.246;2023-04-08T12:39:02;101137.47;;;16.23;36.08
22662;BME280;11497;52.222;21.246;2023-04-08T12:41:30;101135.44;;;16.09;35.42
22662;BME280;11497;52.222;21.246;2023-04-08T12:43:58;101129.72;;;16.00;36.04
22662;BME280;11497;52.222;21.246;2023-04-08T12:46:26;101132.31;;;16.20;36.67
22662;BME280;11497;52.222;21.246;2023-04-08T12:48:54;101129.66;;;16.40;36.80
22662;BME280;11497;52.222;21.246;2023-04-08T12:51:30;101129.66;;;16.59;36.07
22662;BME280;11497;52.222;21.246;2023-04-08T12:53:58;101122.25;;;16.67;36.39
22662;BME280;11497;52.222;21.246;2023-04-08T12:56:28;101120.53;;;16.85;36.43
22662;BME280;11497;52.222;21.246;2023-04-08T12:58:56;101124.91;;;16.67;36.68
22662;BME280;11497;52.222;21.246;2023-04-08T13:01:24;101122.34;;;17.02;36.61
22662;BME280;11497;52.222;21.246;2023-04-08T13:03:52;101116.19;;;17.20;36.49
22662;BME280;11497;52.222;21.246;2023-04-08T13:06:21;101115.56;;;17.49;36.33
22662;BME280;11497;52.222;21.246;2023-04-08T13:08:48;101107.94;;;17.43;36.29